Time;durP1;ratioP1;P1;durP2;ratioP2;P2;SDS_P1;SDS_P2;PMS_P1;PMS_P2;Temp;Humidity;BMP_temperature;BMP_pressure;BME280_temperature;BME280_humidity;BME280_pressure;Samples;Min_cycle;Max_cycle;Signal;HPM_P1;HPM_P2
2024/02/04 00:00:13;;;;;;;10.90;3.72;;;8.80;99.90;;;;;;5087530;28;20234;-75
2024/02/04 00:02:41;;;;;;;18.02;4.15;;;8.70;99.90;;;;;;5072536;28;20296;-75
2024/02/04 00:05:08;;;;;;;11.15;4.13;;;8.70;99.90;;;;;;5079714;28;20215;-70
2024/02/04 00:07:35;;;;;;;11.50;3.30;;;8.70;99.90;;;;;;5082288;28;20245;-72
2024/02/04 00:10:03;;;;;;;14.75;3.72;;;8.70;99.90;;;;;;5079043;28;20203;-71
2024/02/04 00:12:30;;;;;;;11.48;4.10;;;8.70;99.90;;;;;;5072744;28;20229;-77
2024/02/04 00:14:57;;;;;;;9.95;3.78;;;8.70;99.90;;;;;;5077643;28;20287;-72
2024/02/04 00:17:29;;;;;;;9.65;3.50;;;8.60;99.90;;;;;;5086982;28;20210;-73
2024/02/04 00:19:57;;;;;;;15.23;3.75;;;8.60;99.90;;;;;;5080993;28;20299;-74
2024/02/04 00:22:24;;;;;;;14.50;4.03;;;8.60;99.90;;;;;;5087595;28;20268;-73
2024/02/04 00:24:54;;;;;;;13.82;5.07;;;8.50;99.90;;;;;;5079150;28;20207;-72
2024/02/04 00:27:20;;;;;;;19.42;4.70;;;8.50;99.90;;;;;;5079695;28;20203;-73
2024/02/04 00:29:47;;;;;;;9.05;3.80;;;8.40;99.90;;;;;;5080166;28;20204;-72
2024/02/04 00:32:14;;;;;;;11.90;5.38;;;8.40;99.90;;;;;;5073820;28;20347;-73
2024/02/04 00:34:41;;;;;;;18.02;4.88;;;8.30;99.90;;;;;;5082572;28;20207;-72
2024/02/04 00:37:10;;;;;;;18.67;5.65;;;8.30;99.90;;;;;;5079133;28;20233;-73
2024/02/04 00:39:37;;;;;;;10.80;4.40;;;8.30;99.90;;;;;;5084692;28;20214;-75
2024/02/04 00:42:04;;;;;;;18.75;6.35;;;8.30;99.90;;;;;;5076480;28;20691;-70
2024/02/04 00:44:31;;;;;;;16.45;5.63;;;8.20;99.90;;;;;;5082273;28;20221;-72
2024/02/04 00:46:57;;;;;;;13.40;7.60;;;8.20;99.90;;;;;;5073655;28;20547;-71
2024/02/04 00:49:26;;;;;;;12.43;6.05;;;8.20;99.90;;;;;;5083649;28;20650;-71
2024/02/04 00:51:53;;;;;;;15.35;6.15;;;8.20;99.90;;;;;;5083992;28;20203;-69
2024/02/04 00:54:22;;;;;;;11.32;6.90;;;8.20;99.90;;;;;;5079826;28;20258;-73
2024/02/04 00:56:48;;;;;;;13.45;6.88;;;8.20;99.90;;;;;;5076284;28;20211;-70
2024/02/04 00:59:15;;;;;;;15.00;6.57;;;8.20;99.90;;;;;;5084682;28;20665;-70
2024/02/04 01:01:43;;;;;;;15.10;7.78;;;8.20;99.90;;;;;;5076579;28;20202;-75
2024/02/04 01:04:10;;;;;;;13.18;6.00;;;8.10;99.90;;;;;;5081000;28;20543;-72
2024/02/04 01:06:37;;;;;;;12.55;6.57;;;8.10;99.90;;;;;;5085478;28;20234;-71
2024/02/04 01:09:04;;;;;;;17.60;7.32;;;8.10;99.90;;;;;;5081764;28;20215;-72
2024/02/04 01:11:32;;;;;;;12.90;6.88;;;8.10;99.90;;;;;;5079208;28;20199;-72
2024/02/04 01:13:59;;;;;;;15.15;6.93;;;8.00;99.90;;;;;;5089440;28;20704;-73
2024/02/04 01:16:27;;;;;;;19.83;9.55;;;8.10;99.90;;;;;;5086755;28;20207;-71
2024/02/04 01:18:54;;;;;;;19.10;8.77;;;8.00;99.90;;;;;;5089842;28;20231;-71
2024/02/04 01:21:21;;;;;;;19.75;8.77;;;8.00;99.90;;;;;;5084943;28;20260;-72
2024/02/04 01:23:48;;;;;;;15.57;9.13;;;8.00;99.90;;;;;;5079428;28;20215;-74
2024/02/04 01:26:15;;;;;;;14.32;8.35;;;7.90;99.90;;;;;;5086635;28;20228;-71
2024/02/04 01:28:43;;;;;;;19.80;8.65;;;7.90;99.90;;;;;;5086321;28;20221;-71
2024/02/04 01:31:10;;;;;;;19.38;9.10;;;7.90;99.90;;;;;;5094752;28;20194;-71
2024/02/04 01:33:37;;;;;;;16.00;8.48;;;7.90;99.90;;;;;;5085243;28;20223;-73
2024/02/04 01:36:05;;;;;;;19.05;8.90;;;8.00;99.90;;;;;;5087252;28;20571;-72
2024/02/04 01:38:32;;;;;;;11.32;7.90;;;8.00;99.90;;;;;;5079800;28;20617;-70
2024/02/04 01:40:59;;;;;;;14.63;9.00;;;7.90;99.90;;;;;;5086776;28;20598;-71
2024/02/04 01:43:26;;;;;;;19.90;8.80;;;7.90;99.90;;;;;;5085618;28;20276;-71
2024/02/04 01:45:54;;;;;;;24.42;9.35;;;8.00;99.90;;;;;;5081759;28;20353;-72
2024/02/04 01:48:22;;;;;;;18.25;10.05;;;8.00;99.90;;;;;;5083568;28;20240;-74
2024/02/04 01:50:52;;;;;;;18.48;10.95;;;8.00;99.90;;;;;;5087567;28;20251;-74
2024/02/04 01:53:21;;;;;;;18.80;11.35;;;8.00;99.90;;;;;;5088428;28;20222;-73
2024/02/04 01:55:48;;;;;;;18.20;10.43;;;7.90;99.90;;;;;;5079953;28;20226;-71
2024/02/04 01:58:16;;;;;;;14.07;8.27;;;7.90;99.90;;;;;;5075853;28;20203;-72
2024/02/04 02:00:43;;;;;;;12.25;7.90;;;7.90;99.90;;;;;;5077949;28;20587;-71
2024/02/04 02:03:13;;;;;;;15.27;10.40;;;8.00;99.90;;;;;;5091657;28;20223;-73
2024/02/04 02:05:41;;;;;;;17.58;9.90;;;7.90;99.90;;;;;;5087940;28;20307;-74
2024/02/04 02:08:08;;;;;;;23.02;10.23;;;7.90;99.90;;;;;;5079962;28;20230;-71
2024/02/04 02:10:36;;;;;;;15.38;9.40;;;7.90;99.90;;;;;;5088765;28;20260;-74
2024/02/04 02:13:12;;;;;;;32.92;11.65;;;7.90;99.90;;;;;;5091437;28;20215;-71
2024/02/04 02:15:44;;;;;;;17.25;11.02;;;7.90;99.90;;;;;;5082882;28;20241;-73
2024/02/04 02:18:21;;;;;;;31.67;10.80;;;7.90;99.90;;;;;;5080229;28;20629;-74
2024/02/04 02:21:11;;;;;;;25.33;10.63;;;7.90;99.90;;;;;;5081764;28;20203;-73
2024/02/04 02:23:49;;;;;;;13.15;9.60;;;7.90;99.90;;;;;;5083357;28;20227;-74
2024/02/04 02:26:18;;;;;;;20.35;10.40;;;7.90;99.90;;;;;;5085387;28;20304;-70
2024/02/04 02:28:45;;;;;;;18.23;9.85;;;7.90;99.90;;;;;;5084445;28;20200;-74
2024/02/04 02:31:12;;;;;;;12.55;8.38;;;7.90;99.90;;;;;;5085918;28;20291;-72
2024/02/04 02:33:39;;;;;;;16.88;10.00;;;7.80;99.90;;;;;;5084398;28;20306;-72
2024/02/04 02:36:14;;;;;;;17.90;9.05;;;7.80;99.90;;;;;;5087779;28;20241;-74
2024/02/04 02:38:47;;;;;;;15.25;9.30;;;7.80;99.90;;;;;;5073259;28;20203;-72
2024/02/04 02:41:15;;;;;;;15.15;9.90;;;7.80;99.90;;;;;;5087089;28;20195;-71
2024/02/04 02:43:45;;;;;;;20.13;10.65;;;7.80;99.90;;;;;;5078683;28;20265;-71
2024/02/04 02:46:12;;;;;;;12.45;8.88;;;7.80;99.90;;;;;;5087825;28;20215;-75
2024/02/04 02:48:40;;;;;;;19.45;10.98;;;7.80;99.90;;;;;;5084750;28;20222;-74
2024/02/04 02:51:07;;;;;;;22.30;9.55;;;7.80;99.90;;;;;;5088035;28;20195;-73
2024/02/04 02:53:34;;;;;;;17.77;9.82;;;7.80;99.90;;;;;;5087105;28;20308;-76
2024/02/04 02:56:01;;;;;;;13.88;9.75;;;7.80;99.90;;;;;;5083503;28;20231;-74
2024/02/04 02:58:27;;;;;;;14.43;7.95;;;7.80;99.90;;;;;;5082994;28;20669;-72
2024/02/04 03:00:56;;;;;;;27.10;9.68;;;7.80;99.90;;;;;;5081192;28;20198;-71
2024/02/04 03:03:23;;;;;;;20.63;9.10;;;7.80;99.90;;;;;;5087059;28;20288;-73
2024/02/04 03:05:49;;;;;;;15.75;8.70;;;7.80;99.90;;;;;;5077336;28;20254;-71
2024/02/04 03:08:16;;;;;;;11.90;7.82;;;7.80;99.90;;;;;;5090677;28;20226;-74
2024/02/04 03:10:43;;;;;;;19.83;9.70;;;7.80;99.90;;;;;;5079324;28;20280;-73
2024/02/04 03:13:10;;;;;;;13.25;7.93;;;7.80;99.90;;;;;;5078215;28;20697;-75
2024/02/04 03:15:37;;;;;;;16.02;7.45;;;7.70;99.90;;;;;;5085691;28;20203;-73
2024/02/04 03:18:06;;;;;;;12.30;7.40;;;7.70;99.90;;;;;;5080845;28;20199;-71
2024/02/04 03:20:33;;;;;;;14.35;8.32;;;7.70;99.90;;;;;;5086159;28;20264;-72
2024/02/04 03:23:01;;;;;;;17.20;8.07;;;7.60;99.90;;;;;;5074620;28;20261;-71
2024/02/04 03:25:29;;;;;;;20.65;8.38;;;7.60;99.90;;;;;;5079033;28;20227;-73
2024/02/04 03:27:57;;;;;;;15.77;7.18;;;7.60;99.90;;;;;;5083043;28;20365;-74
2024/02/04 03:30:24;;;;;;;18.23;6.25;;;7.60;99.90;;;;;;5082250;28;20718;-73
2024/02/04 03:32:50;;;;;;;15.52;7.82;;;7.60;99.90;;;;;;5086366;28;20681;-73
2024/02/04 03:35:19;;;;;;;23.55;6.65;;;7.60;99.90;;;;;;5083369;28;20206;-72
2024/02/04 03:37:46;;;;;;;15.98;6.65;;;7.60;99.90;;;;;;5083322;28;20259;-71
2024/02/04 03:40:13;;;;;;;15.25;6.75;;;7.60;99.90;;;;;;5085587;28;20257;-72
2024/02/04 03:42:40;;;;;;;12.02;5.20;;;7.60;99.90;;;;;;5075795;28;20227;-70
2024/02/04 03:45:08;;;;;;;15.60;6.07;;;7.60;99.90;;;;;;5081337;28;20613;-71
2024/02/04 03:47:35;;;;;;;16.00;6.03;;;7.50;99.90;;;;;;5084973;28;20292;-73
2024/02/04 03:50:03;;;;;;;11.13;6.05;;;7.50;99.90;;;;;;5080627;28;20210;-73
2024/02/04 03:52:31;;;;;;;16.90;6.30;;;7.50;99.90;;;;;;5087661;28;20219;-71
2024/02/04 03:54:59;;;;;;;16.23;4.75;;;7.50;99.90;;;;;;5085782;28;20242;-73
2024/02/04 03:57:27;;;;;;;10.88;4.10;;;7.50;99.90;;;;;;5087497;28;20198;-70
2024/02/04 03:59:54;;;;;;;14.00;5.45;;;7.50;99.90;;;;;;5082036;28;20629;-70
2024/02/04 04:02:21;;;;;;;16.80;5.28;;;7.50;99.90;;;;;;5086880;28;20214;-74
2024/02/04 04:04:48;;;;;;;9.23;4.38;;;7.50;99.90;;;;;;5084448;28;20271;-73
2024/02/04 04:07:15;;;;;;;14.48;5.05;;;7.40;99.90;;;;;;5086773;28;20282;-73
2024/02/04 04:09:43;;;;;;;10.27;4.65;;;7.40;99.90;;;;;;5090698;28;20604;-73
2024/02/04 04:12:10;;;;;;;14.15;4.20;;;7.40;99.90;;;;;;5092251;28;20705;-72
2024/02/04 04:14:37;;;;;;;14.32;6.53;;;7.40;99.90;;;;;;5092060;28;20738;-72
2024/02/04 04:17:04;;;;;;;22.65;7.35;;;7.40;99.90;;;;;;5081536;28;20226;-74
2024/02/04 04:19:33;;;;;;;10.95;5.90;;;7.40;99.90;;;;;;5087362;28;20207;-71
2024/02/04 04:22:01;;;;;;;11.02;4.97;;;7.50;99.90;;;;;;5077662;28;20217;-72
2024/02/04 04:24:28;;;;;;;14.50;5.10;;;7.50;99.90;;;;;;5073741;28;20207;-71
2024/02/04 04:26:56;;;;;;;10.07;4.57;;;7.50;99.90;;;;;;5083251;28;20268;-72
2024/02/04 04:29:23;;;;;;;9.60;4.13;;;7.50;99.90;;;;;;5075166;28;20671;-72
2024/02/04 04:31:51;;;;;;;13.65;4.32;;;7.60;99.90;;;;;;5080680;28;20566;-71
2024/02/04 04:34:19;;;;;;;9.73;4.63;;;7.60;99.90;;;;;;5079990;28;20641;-71
2024/02/04 04:36:46;;;;;;;11.23;4.70;;;7.60;99.90;;;;;;5088282;28;20568;-73
2024/02/04 04:39:13;;;;;;;8.73;3.13;;;7.70;99.90;;;;;;5089279;28;20199;-74
2024/02/04 04:41:41;;;;;;;9.23;3.65;;;7.70;99.90;;;;;;5081987;28;20202;-72
2024/02/04 04:44:09;;;;;;;10.88;3.72;;;7.70;99.90;;;;;;5078645;28;20203;-75
2024/02/04 04:46:39;;;;;;;8.43;3.63;;;7.70;99.90;;;;;;5079664;28;20219;-70
2024/02/04 04:49:06;;;;;;;8.15;3.08;;;7.70;99.90;;;;;;5086602;28;20207;-73
2024/02/04 04:51:33;;;;;;;10.43;3.92;;;7.70;99.90;;;;;;5087140;28;20732;-72
2024/02/04 04:54:00;;;;;;;9.15;3.25;;;7.70;99.90;;;;;;5093325;28;20231;-73
2024/02/04 04:56:28;;;;;;;8.40;3.28;;;7.80;99.90;;;;;;5075950;28;20204;-70
2024/02/04 04:58:55;;;;;;;8.98;3.55;;;7.60;99.90;;;;;;5081601;28;20242;-71
2024/02/04 05:01:23;;;;;;;19.10;4.10;;;7.60;99.90;;;;;;5084702;28;20206;-73
2024/02/04 05:03:50;;;;;;;12.50;2.95;;;7.60;99.90;;;;;;5079474;28;20223;-70
2024/02/04 05:06:17;;;;;;;6.90;3.08;;;7.50;99.90;;;;;;5081011;28;20222;-73
2024/02/04 05:08:44;;;;;;;8.27;3.10;;;7.50;99.90;;;;;;5079585;28;20257;-71
2024/02/04 05:11:11;;;;;;;11.27;3.00;;;7.40;99.90;;;;;;5083141;28;20657;-70
2024/02/04 05:13:40;;;;;;;10.77;3.28;;;7.40;99.90;;;;;;5082213;28;20235;-75
2024/02/04 05:16:07;;;;;;;8.15;3.67;;;7.40;99.90;;;;;;5083740;28;20290;-71
2024/02/04 05:18:36;;;;;;;8.48;2.90;;;7.40;99.90;;;;;;5081344;28;20666;-72
2024/02/04 05:21:03;;;;;;;11.98;4.07;;;7.40;99.90;;;;;;5076584;28;20258;-74
2024/02/04 05:23:30;;;;;;;11.00;2.65;;;7.50;99.90;;;;;;5077875;28;20277;-75
2024/02/04 05:25:57;;;;;;;9.77;3.15;;;7.50;99.90;;;;;;5078547;28;20267;-72
2024/02/04 05:28:24;;;;;;;16.98;5.03;;;7.50;99.90;;;;;;5078383;28;20203;-71
2024/02/04 05:30:51;;;;;;;9.07;3.47;;;7.50;99.90;;;;;;5087746;28;20248;-72
2024/02/04 05:33:18;;;;;;;9.32;3.20;;;7.40;99.90;;;;;;5075745;28;20699;-71
2024/02/04 05:35:47;;;;;;;10.50;3.92;;;7.40;99.90;;;;;;5086485;28;20202;-71
2024/02/04 05:38:14;;;;;;;10.20;2.53;;;7.40;99.90;;;;;;5084151;28;20649;-72
2024/02/04 05:40:41;;;;;;;14.57;3.35;;;7.40;99.90;;;;;;5089958;28;20567;-73
2024/02/04 05:43:10;;;;;;;7.03;2.03;;;7.40;99.90;;;;;;5084447;28;20222;-74
2024/02/04 05:45:38;;;;;;;9.02;2.85;;;7.40;99.90;;;;;;5084854;28;20200;-70
2024/02/04 05:48:06;;;;;;;13.70;2.95;;;7.40;99.90;;;;;;5084600;28;20305;-75
2024/02/04 05:50:33;;;;;;;9.60;2.33;;;7.40;99.90;;;;;;5085693;28;20253;-71
2024/02/04 05:53:01;;;;;;;9.10;2.25;;;7.40;99.90;;;;;;5082636;28;20215;-74
2024/02/04 05:55:28;;;;;;;10.15;2.90;;;7.40;99.90;;;;;;5074501;28;20253;-71
2024/02/04 05:57:55;;;;;;;9.60;2.55;;;7.40;99.90;;;;;;5080488;28;20247;-75
2024/02/04 06:00:22;;;;;;;4.40;1.85;;;7.40;99.90;;;;;;5079765;28;20728;-71
2024/02/04 06:02:49;;;;;;;12.45;2.72;;;7.30;99.90;;;;;;5087591;28;20254;-73
2024/02/04 06:05:16;;;;;;;6.88;2.28;;;7.40;99.90;;;;;;5080966;28;20227;-71
2024/02/04 06:07:44;;;;;;;9.82;2.60;;;7.40;99.90;;;;;;5078537;28;20588;-71
2024/02/04 06:10:13;;;;;;;7.55;3.30;;;7.40;99.90;;;;;;5075812;28;20278;-73
2024/02/04 06:12:40;;;;;;;11.63;3.33;;;7.30;99.90;;;;;;5075865;28;20219;-72
2024/02/04 06:15:13;;;;;;;4.95;2.78;;;7.30;99.90;;;;;;5084438;28;20563;-72
2024/02/04 06:17:40;;;;;;;17.73;4.10;;;7.40;99.90;;;;;;5082299;28;20717;-73
2024/02/04 06:20:08;;;;;;;13.07;3.30;;;7.40;99.90;;;;;;5086171;28;20230;-72
2024/02/04 06:22:35;;;;;;;5.60;2.28;;;7.40;99.90;;;;;;5079434;28;20265;-74
2024/02/04 06:25:03;;;;;;;10.00;3.20;;;7.40;99.90;;;;;;5080784;28;20541;-74
2024/02/04 06:27:32;;;;;;;14.10;3.53;;;7.40;99.90;;;;;;5085634;28;20222;-70
2024/02/04 06:29:59;;;;;;;7.22;3.03;;;7.30;99.90;;;;;;5085589;28;20207;-74
2024/02/04 06:32:26;;;;;;;11.63;3.33;;;7.30;99.90;;;;;;5086031;28;20223;-73
2024/02/04 06:34:55;;;;;;;9.45;3.80;;;7.30;99.90;;;;;;5076083;28;20204;-72
2024/02/04 06:37:22;;;;;;;8.38;3.13;;;7.40;99.90;;;;;;5087853;28;20199;-73
2024/02/04 06:39:49;;;;;;;9.90;5.90;;;7.30;99.90;;;;;;5083955;28;20209;-73
2024/02/04 06:42:16;;;;;;;9.73;5.60;;;7.40;99.90;;;;;;5089118;28;20222;-72
2024/02/04 06:44:45;;;;;;;9.77;3.75;;;7.40;99.90;;;;;;5087156;28;20210;-71
2024/02/04 06:47:13;;;;;;;13.07;3.95;;;7.40;99.90;;;;;;5085778;28;20218;-72
2024/02/04 06:49:41;;;;;;;17.83;4.40;;;7.50;99.90;;;;;;5076224;28;20199;-73
2024/02/04 06:52:08;;;;;;;14.52;4.05;;;7.50;99.90;;;;;;5085692;28;20305;-69
2024/02/04 06:54:35;;;;;;;11.10;4.10;;;7.50;99.90;;;;;;5079965;28;20211;-72
2024/02/04 06:57:02;;;;;;;12.10;4.45;;;7.50;99.90;;;;;;5072726;28;20234;-73
2024/02/04 06:59:29;;;;;;;11.18;3.30;;;7.50;99.90;;;;;;5086381;28;20327;-71
2024/02/04 07:01:58;;;;;;;8.85;4.28;;;7.50;99.90;;;;;;5080575;28;20273;-72
2024/02/04 07:04:25;;;;;;;8.30;4.50;;;7.50;99.90;;;;;;5081706;28;20613;-73
2024/02/04 07:06:52;;;;;;;12.82;5.05;;;7.60;99.90;;;;;;5084909;28;20250;-74
2024/02/04 07:09:19;;;;;;;14.43;5.85;;;7.60;99.90;;;;;;5080395;28;20615;-72
2024/02/04 07:11:46;;;;;;;13.52;4.85;;;7.50;99.90;;;;;;5087474;28;20210;-71
2024/02/04 07:14:13;;;;;;;9.23;5.00;;;7.60;99.90;;;;;;5081553;28;20238;-74
2024/02/04 07:16:40;;;;;;;7.35;4.28;;;7.60;99.90;;;;;;5073228;28;20238;-73
2024/02/04 07:19:09;;;;;;;9.02;5.75;;;7.60;99.90;;;;;;5078930;28;20363;-74
2024/02/04 07:21:36;;;;;;;13.05;5.10;;;7.60;99.90;;;;;;5083236;28;20254;-73
2024/02/04 07:24:03;;;;;;;11.43;4.80;;;7.60;99.90;;;;;;5073140;28;20663;-71
2024/02/04 07:26:30;;;;;;;15.27;5.35;;;7.70;99.90;;;;;;5072172;28;20239;-75
2024/02/04 07:28:57;;;;;;;10.13;5.72;;;7.70;99.90;;;;;;5081572;28;20234;-73
2024/02/04 07:31:24;;;;;;;15.82;5.57;;;7.70;99.90;;;;;;5082200;28;20199;-71
2024/02/04 07:33:51;;;;;;;9.52;5.00;;;7.80;99.90;;;;;;5091161;28;20226;-71
2024/02/04 07:36:19;;;;;;;11.27;5.88;;;7.80;99.90;;;;;;5085056;28;20545;-73
2024/02/04 07:38:46;;;;;;;11.20;5.15;;;7.80;99.90;;;;;;5074038;28;20666;-72
2024/02/04 07:41:15;;;;;;;10.68;4.70;;;7.90;99.90;;;;;;5083246;28;20199;-71
2024/02/04 07:43:43;;;;;;;7.40;4.63;;;7.80;99.90;;;;;;5075339;28;20278;-75
2024/02/04 07:46:11;;;;;;;12.00;4.68;;;7.80;99.90;;;;;;5079512;28;20203;-72
2024/02/04 07:48:38;;;;;;;14.82;5.28;;;7.80;99.90;;;;;;5072835;28;20219;-73
2024/02/04 07:51:05;;;;;;;10.93;4.70;;;7.80;99.90;;;;;;5073930;28;20208;-71
2024/02/04 07:53:34;;;;;;;14.93;4.50;;;7.90;99.90;;;;;;5073541;28;20227;-74
2024/02/04 07:56:02;;;;;;;19.08;5.53;;;7.90;99.90;;;;;;5078381;28;20665;-73
2024/02/04 07:58:29;;;;;;;14.05;4.35;;;8.00;99.90;;;;;;5074281;28;20678;-74
2024/02/04 08:00:56;;;;;;;12.30;4.82;;;8.00;99.90;;;;;;5075558;28;20563;-72
2024/02/04 08:03:23;;;;;;;15.18;4.30;;;8.00;99.90;;;;;;5079300;28;20254;-75
2024/02/04 08:05:50;;;;;;;16.13;5.25;;;8.00;99.90;;;;;;5081371;28;20207;-74
2024/02/04 08:08:17;;;;;;;9.52;3.67;;;8.10;99.90;;;;;;5075054;28;20250;-75
2024/02/04 08:10:45;;;;;;;12.77;3.78;;;8.10;99.90;;;;;;5078853;28;20252;-72
2024/02/04 08:13:12;;;;;;;10.95;3.65;;;8.20;99.90;;;;;;5084457;28;20254;-74
2024/02/04 08:15:39;;;;;;;18.92;5.30;;;8.30;99.90;;;;;;5075329;28;20207;-74
2024/02/04 08:18:05;;;;;;;14.43;4.85;;;8.30;99.90;;;;;;5072649;28;20235;-73
2024/02/04 08:20:32;;;;;;;8.13;3.50;;;8.40;99.90;;;;;;5080484;28;20202;-71
2024/02/04 08:22:59;;;;;;;14.65;5.38;;;8.30;99.90;;;;;;5077215;28;20254;-76
2024/02/04 08:25:26;;;;;;;10.32;3.13;;;8.30;99.90;;;;;;5083941;28;20203;-76
2024/02/04 08:27:55;;;;;;;11.15;3.30;;;8.40;99.90;;;;;;5074811;28;20580;-77
2024/02/04 08:30:22;;;;;;;11.27;3.28;;;8.40;99.90;;;;;;5080015;28;20198;-76
2024/02/04 08:32:49;;;;;;;8.35;3.10;;;8.40;99.90;;;;;;5075368;28;20300;-75
2024/02/04 08:35:16;;;;;;;12.32;3.45;;;8.40;99.90;;;;;;5079018;28;20221;-76
2024/02/04 08:37:43;;;;;;;4.07;2.35;;;8.40;99.90;;;;;;5075262;28;20190;-75
2024/02/04 08:40:11;;;;;;;23.20;5.20;;;8.40;99.90;;;;;;5084163;28;20240;-75
2024/02/04 08:42:38;;;;;;;9.02;3.33;;;8.40;99.90;;;;;;5083486;28;20226;-73
2024/02/04 08:45:07;;;;;;;13.98;3.17;;;8.50;99.90;;;;;;5075641;28;20274;-73
2024/02/04 08:47:34;;;;;;;8.68;4.10;;;8.50;99.90;;;;;;5071556;28;20276;-73
2024/02/04 08:50:02;;;;;;;10.80;3.00;;;8.60;99.90;;;;;;5077192;28;20218;-76
2024/02/04 08:52:29;;;;;;;9.52;2.33;;;8.60;99.90;;;;;;5072007;28;20231;-72
2024/02/04 08:54:56;;;;;;;12.60;3.10;;;8.60;99.90;;;;;;5074500;28;20290;-72
2024/02/04 08:57:23;;;;;;;11.38;2.70;;;8.60;99.90;;;;;;5072099;28;20632;-73
2024/02/04 08:59:50;;;;;;;9.70;2.85;;;8.60;99.90;;;;;;5075282;28;20603;-72
2024/02/04 09:02:19;;;;;;;6.90;2.40;;;8.60;99.90;;;;;;5078619;28;20544;-76
2024/02/04 09:04:46;;;;;;;4.72;1.75;;;8.60;99.90;;;;;;5072576;28;20200;-73
2024/02/04 09:07:14;;;;;;;11.55;2.78;;;8.60;99.90;;;;;;5074207;28;20273;-74
2024/02/04 09:09:41;;;;;;;10.18;3.13;;;8.60;99.90;;;;;;5073132;28;20230;-72
2024/02/04 09:12:09;;;;;;;14.80;4.25;;;8.70;99.90;;;;;;5075117;28;20294;-74
2024/02/04 09:14:36;;;;;;;14.95;3.45;;;8.80;99.90;;;;;;5072218;28;20247;-74
2024/02/04 09:17:04;;;;;;;14.93;3.08;;;8.90;99.90;;;;;;5075072;28;20257;-72
2024/02/04 09:19:33;;;;;;;16.40;2.90;;;8.90;99.90;;;;;;5073422;28;20214;-72
2024/02/04 09:22:01;;;;;;;3.67;2.28;;;8.90;99.90;;;;;;5082698;28;20203;-74
2024/02/04 09:24:28;;;;;;;11.27;2.70;;;9.00;99.90;;;;;;5084414;28;20293;-75
2024/02/04 09:26:55;;;;;;;12.73;3.70;;;9.10;99.90;;;;;;5082431;28;20681;-76
2024/02/04 09:29:22;;;;;;;6.97;2.67;;;9.10;99.90;;;;;;5086284;28;20304;-74
2024/02/04 09:31:50;;;;;;;10.30;2.70;;;9.10;99.90;;;;;;5079719;28;20260;-70
2024/02/04 09:34:17;;;;;;;7.88;3.17;;;9.20;99.90;;;;;;5083624;28;20661;-72
2024/02/04 09:36:45;;;;;;;5.28;2.72;;;9.30;99.90;;;;;;5075105;28;20212;-72
2024/02/04 09:39:12;;;;;;;11.75;3.20;;;9.20;99.90;;;;;;5083019;28;20199;-71
2024/02/04 09:41:40;;;;;;;15.85;3.67;;;9.30;99.90;;;;;;5086157;28;20283;-74
2024/02/04 09:44:08;;;;;;;12.18;3.13;;;9.10;99.90;;;;;;5076034;28;20245;-73
2024/02/04 09:46:35;;;;;;;14.70;3.10;;;9.20;99.90;;;;;;5076887;28;20241;-72
2024/02/04 09:49:02;;;;;;;11.80;4.35;;;9.00;99.90;;;;;;5083008;28;20758;-71
2024/02/04 09:51:30;;;;;;;6.88;3.17;;;9.20;99.90;;;;;;5075864;28;20242;-77
2024/02/04 09:54:03;;;;;;;9.13;3.65;;;9.30;99.90;;;;;;5081164;28;20222;-74
2024/02/04 09:56:32;;;;;;;13.32;3.33;;;9.30;99.90;;;;;;5080922;28;20636;-72
2024/02/04 09:58:59;;;;;;;13.82;3.38;;;9.40;99.90;;;;;;5079385;28;20207;-72
2024/02/04 10:01:27;;;;;;;9.55;3.35;;;9.40;99.90;;;;;;5081020;28;20273;-74
2024/02/04 10:03:54;;;;;;;9.10;3.33;;;9.40;99.90;;;;;;5080838;28;20250;-74
2024/02/04 10:06:21;;;;;;;14.30;4.45;;;9.50;99.90;;;;;;5085538;28;20195;-74
2024/02/04 10:08:49;;;;;;;6.07;3.15;;;9.70;99.90;;;;;;5077337;28;20227;-73
2024/02/04 10:11:17;;;;;;;14.20;4.00;;;9.90;99.90;;;;;;5091626;28;20267;-73
2024/02/04 10:13:46;;;;;;;11.25;3.75;;;9.90;99.90;;;;;;5087220;28;22346;-73
2024/02/04 10:16:13;;;;;;;13.20;3.90;;;9.90;99.90;;;;;;5076781;28;20249;-74
2024/02/04 10:18:42;;;;;;;12.75;4.30;;;9.90;99.90;;;;;;5090866;28;20234;-71
2024/02/04 10:21:17;;;;;;;14.68;4.07;;;10.00;99.90;;;;;;5079031;28;20286;-75
2024/02/04 10:23:44;;;;;;;8.90;3.17;;;9.70;99.90;;;;;;5085634;28;20672;-76
2024/02/04 10:26:11;;;;;;;10.10;3.92;;;9.70;99.90;;;;;;5078138;28;20231;-74
2024/02/04 10:28:41;;;;;;;12.00;3.95;;;9.80;99.90;;;;;;5081967;28;20631;-76
2024/02/04 10:31:10;;;;;;;12.88;3.20;;;9.90;99.90;;;;;;5079977;28;20201;-73
2024/02/04 10:33:37;;;;;;;10.20;3.70;;;9.90;99.90;;;;;;5082449;28;20246;-73
2024/02/04 10:36:05;;;;;;;8.88;3.85;;;9.90;99.90;;;;;;5074686;28;20258;-76
2024/02/04 10:38:33;;;;;;;14.70;3.60;;;9.90;99.90;;;;;;5073987;28;20203;-76
2024/02/04 10:41:01;;;;;;;11.32;3.72;;;10.00;99.90;;;;;;5077148;28;20204;-74
2024/02/04 10:43:33;;;;;;;11.40;3.97;;;10.20;99.90;;;;;;5074019;28;20652;-74
2024/02/04 10:46:07;;;;;;;19.90;5.00;;;10.40;99.90;;;;;;5074012;28;20208;-73
2024/02/04 10:48:41;;;;;;;14.50;4.70;;;10.40;99.90;;;;;;5072685;28;20574;-75
2024/02/04 10:51:13;;;;;;;12.85;4.20;;;10.40;99.90;;;;;;5080688;28;20248;-74
2024/02/04 10:53:42;;;;;;;7.47;3.55;;;10.60;99.90;;;;;;5073628;28;20698;-74
2024/02/04 10:56:15;;;;;;;10.23;2.72;;;10.60;99.90;;;;;;5074224;28;20246;-74
2024/02/04 10:58:43;;;;;;;10.55;3.45;;;10.50;99.90;;;;;;5084960;28;20257;-70
2024/02/04 11:01:11;;;;;;;12.40;4.10;;;10.60;99.90;;;;;;5078621;28;20503;-74
2024/02/04 11:03:41;;;;;;;15.98;3.90;;;10.50;99.90;;;;;;5087625;28;20219;-72
2024/02/04 11:06:09;;;;;;;12.05;2.92;;;10.40;99.90;;;;;;5074434;28;20229;-73
2024/02/04 11:08:36;;;;;;;12.10;4.35;;;10.40;99.90;;;;;;5082823;28;20211;-73
2024/02/04 11:11:03;;;;;;;8.32;4.18;;;10.40;99.90;;;;;;5084661;28;20239;-70
2024/02/04 11:13:30;;;;;;;6.95;3.03;;;10.30;99.90;;;;;;5074542;28;20330;-72
2024/02/04 11:16:02;;;;;;;8.18;3.53;;;10.20;99.90;;;;;;5078739;28;20234;-73
2024/02/04 11:18:48;;;;;;;11.98;3.40;;;10.30;99.90;;;;;;5079538;28;20200;-73
2024/02/04 11:21:37;;;;;;;10.25;2.38;;;10.30;99.90;;;;;;5081680;28;20230;-72
2024/02/04 11:24:18;;;;;;;6.70;3.25;;;10.30;99.90;;;;;;5078878;28;20218;-72
2024/02/04 11:26:46;;;;;;;6.13;2.90;;;10.30;99.90;;;;;;5076366;28;20239;-73
2024/02/04 11:29:13;;;;;;;10.82;4.95;;;10.40;99.90;;;;;;5073921;28;20278;-72
2024/02/04 11:31:40;;;;;;;17.10;4.30;;;10.40;99.90;;;;;;5091293;28;20297;-75
2024/02/04 11:34:09;;;;;;;15.45;3.60;;;10.40;99.90;;;;;;5096058;28;20234;-72
2024/02/04 11:36:40;;;;;;;10.98;3.50;;;10.50;99.90;;;;;;5085703;28;20658;-73
2024/02/04 11:39:14;;;;;;;15.88;4.47;;;10.50;99.90;;;;;;5079755;28;20191;-72
2024/02/04 11:41:47;;;;;;;8.32;3.10;;;10.50;99.90;;;;;;5081977;28;20201;-73
2024/02/04 11:44:22;;;;;;;7.13;3.50;;;10.50;99.90;;;;;;5073680;28;20291;-75
2024/02/04 11:46:49;;;;;;;10.13;3.50;;;10.50;99.90;;;;;;5086694;28;20209;-74
2024/02/04 11:49:19;;;;;;;13.55;4.20;;;10.60;99.90;;;;;;5080381;28;20694;-72
2024/02/04 11:51:49;;;;;;;4.35;3.50;;;10.60;99.90;;;;;;5080502;28;20254;-73
2024/02/04 11:54:18;;;;;;;14.93;3.72;;;10.60;99.90;;;;;;5077643;28;20622;-73
2024/02/04 11:56:46;;;;;;;8.85;3.72;;;10.70;99.90;;;;;;5074378;28;21047;-75
2024/02/04 11:59:13;;;;;;;13.73;4.40;;;10.50;99.90;;;;;;5081860;28;20237;-73
2024/02/04 12:01:41;;;;;;;7.30;3.63;;;10.60;99.90;;;;;;5083577;28;20198;-71
2024/02/04 12:04:12;;;;;;;10.65;3.45;;;10.80;99.90;;;;;;5086152;28;20262;-75
2024/02/04 12:06:42;;;;;;;9.52;2.83;;;10.80;99.90;;;;;;5078801;28;20290;-77
2024/02/04 12:09:09;;;;;;;7.05;3.38;;;10.90;99.90;;;;;;5078898;28;20250;-73
2024/02/04 12:11:38;;;;;;;11.65;3.78;;;11.00;99.90;;;;;;5080770;28;20204;-73
2024/02/04 12:14:06;;;;;;;6.85;3.17;;;10.80;99.90;;;;;;5077966;28;20313;-73
2024/02/04 12:16:35;;;;;;;7.10;3.58;;;10.90;99.90;;;;;;5077612;28;20211;-73
2024/02/04 12:19:03;;;;;;;6.15;2.70;;;10.80;99.90;;;;;;5083917;28;20194;-71
2024/02/04 12:21:30;;;;;;;11.20;3.30;;;10.80;99.90;;;;;;5072575;28;20211;-71
2024/02/04 12:24:00;;;;;;;5.80;3.75;;;10.70;99.90;;;;;;5079391;28;20299;-74
2024/02/04 12:26:27;;;;;;;8.13;3.30;;;10.60;99.90;;;;;;5073581;28;20352;-71
2024/02/04 12:28:55;;;;;;;9.73;3.92;;;10.70;99.90;;;;;;5089454;28;20757;-72
2024/02/04 12:31:25;;;;;;;8.98;2.67;;;10.80;99.90;;;;;;5081537;28;20207;-74
2024/02/04 12:33:57;;;;;;;5.35;2.67;;;10.80;99.90;;;;;;5074568;28;20839;-72
2024/02/04 12:36:25;;;;;;;5.93;2.65;;;10.80;99.90;;;;;;5074430;28;20203;-70
2024/02/04 12:38:54;;;;;;;11.40;3.95;;;10.70;99.90;;;;;;5083888;28;20208;-77
2024/02/04 12:41:23;;;;;;;9.48;3.90;;;10.30;99.90;;;;;;5074963;28;20231;-72
2024/02/04 12:43:54;;;;;;;11.20;2.88;;;10.20;99.90;;;;;;5073021;28;20227;-73
2024/02/04 12:46:22;;;;;;;8.52;2.88;;;10.30;99.90;;;;;;5074763;28;20256;-73
2024/02/04 12:48:52;;;;;;;10.52;4.35;;;10.40;99.90;;;;;;5079965;28;20297;-71
2024/02/04 12:51:25;;;;;;;5.35;3.35;;;10.40;99.90;;;;;;5082085;28;20195;-74